Trout Lake, Michigan
Current Conditions -  °F | °C
As of 12:54 PM on Tuesday 21 Oct 2014 (Local Time) from KERY Reporting Station
Clear Clear  
Wind Chill: 38°   Ceiling: Unl
Heat Index: 43°   Visibility: 10mi
Dew Point: 32°   Wind: 8mph
Humidity: 67%   Direction: 350°N
Pressure: 30.22"   Gusts: NA
Location:  46.19°N, 85.02°W
Report Text: KERY 211654Z AUTO 35007KT 320V020 10SM CLR 06/00 A3022 RMK AO2 T00600002
Loading
Personal Weather Stations






























Interactive Weather Map
Tropical Storm Tracking
New forecast layout! Learn more

10-Day Weather Forecast

Advertisements
Track Severe Weather on mobile